createdAt,value
2022-08-17T00:00:42.790Z,22.67
2022-08-17T00:03:13.646Z,22.57
2022-08-17T00:05:47.315Z,22.46
2022-08-17T00:08:17.337Z,22.38
2022-08-17T00:10:47.903Z,22.32
2022-08-17T00:13:21.161Z,22.34
2022-08-17T00:15:50.375Z,22.29
2022-08-17T00:18:58.185Z,22.24
2022-08-17T00:21:11.818Z,22.21
2022-08-17T00:23:49.159Z,22.19
2022-08-17T00:26:35.854Z,22.20
2022-08-17T00:29:08.715Z,22.19
2022-08-17T00:31:38.170Z,22.24
2022-08-17T00:34:10.507Z,22.17
2022-08-17T00:36:38.965Z,22.16
2022-08-17T00:39:07.769Z,21.98
2022-08-17T00:41:36.160Z,22.02
2022-08-17T00:44:12.138Z,21.88
2022-08-17T00:46:43.432Z,21.84
2022-08-17T00:49:14.634Z,21.82
2022-08-17T00:51:48.943Z,21.81
2022-08-17T00:54:21.460Z,21.78
2022-08-17T00:56:55.211Z,21.81
2022-08-17T00:59:30.831Z,21.78
2022-08-17T01:02:00.683Z,21.79
2022-08-17T01:04:32.572Z,21.78
2022-08-17T01:07:02.891Z,21.75
2022-08-17T01:09:32.571Z,21.65
2022-08-17T01:12:01.515Z,21.62
2022-08-17T01:14:30.070Z,21.58
2022-08-17T01:16:58.636Z,21.54
2022-08-17T01:19:31.562Z,21.48
2022-08-17T01:22:04.136Z,21.34
2022-08-17T01:24:36.123Z,21.35
2022-08-17T01:27:10.071Z,21.29
2022-08-17T01:29:42.642Z,21.32
2022-08-17T01:32:11.631Z,21.32
2022-08-17T01:34:43.741Z,21.28
2022-08-17T01:37:21.121Z,21.24
2022-08-17T01:39:57.248Z,21.27
2022-08-17T01:42:32.455Z,21.17
2022-08-17T01:45:06.828Z,21.09
2022-08-17T01:47:36.143Z,21.05
2022-08-17T01:50:11.513Z,21.02
2022-08-17T01:52:40.517Z,21.03
2022-08-17T01:55:11.750Z,20.96
2022-08-17T01:57:40.115Z,20.99
2022-08-17T02:00:11.259Z,20.98
2022-08-17T02:02:40.960Z,20.94
2022-08-17T02:05:10.247Z,20.84
2022-08-17T02:08:00.545Z,20.84
2022-08-17T02:10:34.073Z,20.85
2022-08-17T02:13:03.926Z,20.82
2022-08-17T02:15:33.491Z,20.76
2022-08-17T02:18:02.983Z,20.69
2022-08-17T02:20:42.018Z,20.64
2022-08-17T02:23:14.760Z,20.60
2022-08-17T02:25:48.184Z,20.57
2022-08-17T02:28:19.026Z,20.57
2022-08-17T02:31:00.254Z,20.54
2022-08-17T02:33:42.135Z,20.61
2022-08-17T02:36:13.873Z,20.63
2022-08-17T02:38:43.721Z,20.61
2022-08-17T02:41:13.696Z,20.50
2022-08-17T02:43:42.753Z,20.42
2022-08-17T02:46:12.697Z,20.40
2022-08-17T02:48:41.041Z,20.45
2022-08-17T02:51:10.289Z,20.41
2022-08-17T02:53:38.647Z,20.37
2022-08-17T02:56:07.906Z,20.33
2022-08-17T02:58:37.620Z,20.30
2022-08-17T03:01:09.627Z,20.32
2022-08-17T03:03:39.269Z,20.22
2022-08-17T03:06:08.675Z,20.20
2022-08-17T03:08:38.058Z,20.18
2022-08-17T03:11:07.420Z,20.19
2022-08-17T03:13:37.402Z,20.08
2022-08-17T03:16:06.426Z,20.11
2022-08-17T03:18:35.144Z,20.10
2022-08-17T03:21:04.570Z,20.03
2022-08-17T03:23:34.073Z,20.06
2022-08-17T03:26:02.795Z,20.02
2022-08-17T03:28:32.167Z,20.02
2022-08-17T03:31:02.094Z,19.96
2022-08-17T03:33:31.131Z,19.89
2022-08-17T03:36:00.158Z,19.81
2022-08-17T03:38:29.449Z,19.72
2022-08-17T03:41:08.501Z,19.67
2022-08-17T03:43:37.341Z,19.67
2022-08-17T03:46:28.341Z,19.60
2022-08-17T03:49:23.681Z,19.47
2022-08-17T03:52:10.104Z,19.40
2022-08-17T03:55:11.811Z,19.46
2022-08-17T03:57:40.599Z,19.54
2022-08-17T04:00:10.395Z,19.55
2022-08-17T04:02:44.423Z,19.50
2022-08-17T04:05:14.948Z,19.48
2022-08-17T04:07:44.556Z,19.50
2022-08-17T04:10:14.023Z,19.57
2022-08-17T04:12:46.668Z,19.63
2022-08-17T04:15:16.156Z,19.66
2022-08-17T04:17:46.452Z,19.66
2022-08-17T04:20:17.220Z,19.66
2022-08-17T04:22:58.238Z,19.68
2022-08-17T04:25:28.240Z,19.70
2022-08-17T04:27:58.850Z,19.65
2022-08-17T04:30:29.411Z,19.58
2022-08-17T04:33:06.380Z,19.54
2022-08-17T04:35:38.894Z,19.51
2022-08-17T04:38:08.741Z,19.52
2022-08-17T04:40:55.482Z,19.59
2022-08-17T04:43:26.005Z,19.59
2022-08-17T04:45:58.727Z,19.65
2022-08-17T04:48:35.993Z,19.64
2022-08-17T04:51:09.999Z,19.62
2022-08-17T04:53:40.690Z,19.59
2022-08-17T04:56:15.964Z,19.54
2022-08-17T04:58:49.730Z,19.56
2022-08-17T05:01:23.439Z,19.66
2022-08-17T05:03:56.412Z,19.69
2022-08-17T05:06:25.065Z,19.69
2022-08-17T05:08:54.384Z,19.72
2022-08-17T05:11:23.466Z,19.77
2022-08-17T05:13:52.543Z,19.74
2022-08-17T05:16:22.620Z,19.77
2022-08-17T05:18:51.525Z,19.78
2022-08-17T05:21:23.026Z,19.77
2022-08-17T05:23:54.689Z,19.83
2022-08-17T05:26:26.690Z,19.86
2022-08-17T05:28:59.626Z,19.83
2022-08-17T05:31:29.649Z,19.89
2022-08-17T05:33:59.034Z,19.89
2022-08-17T05:36:41.743Z,19.85
2022-08-17T05:39:16.668Z,19.88
2022-08-17T05:41:48.537Z,19.94
2022-08-17T05:44:18.166Z,19.98
2022-08-17T05:46:51.270Z,20.03
2022-08-17T05:49:29.169Z,19.99
2022-08-17T05:52:07.049Z,19.96
2022-08-17T05:54:50.194Z,20.00
2022-08-17T05:57:39.890Z,20.09
2022-08-17T06:00:20.646Z,20.12
2022-08-17T06:03:05.484Z,20.22
2022-08-17T06:05:55.829Z,20.29
2022-08-17T06:08:35.025Z,20.40
2022-08-17T06:11:16.902Z,20.45
2022-08-17T06:14:03.456Z,20.47
2022-08-17T06:16:36.855Z,20.57
2022-08-17T06:19:12.030Z,20.66
2022-08-17T06:21:43.675Z,20.76
2022-08-17T06:24:27.403Z,20.82
2022-08-17T06:26:59.131Z,20.87
2022-08-17T06:29:37.274Z,20.93
2022-08-17T06:32:09.292Z,21.01
2022-08-17T06:34:42.289Z,21.10
2022-08-17T06:37:32.344Z,21.21
2022-08-17T06:40:18.002Z,21.31
2022-08-17T06:43:05.830Z,21.38
2022-08-17T06:45:40.317Z,21.44
2022-08-17T06:48:16.805Z,21.54
2022-08-17T06:50:50.540Z,21.62
2022-08-17T06:53:26.148Z,21.68
2022-08-17T06:56:03.646Z,21.75
2022-08-17T06:58:33.381Z,21.84
2022-08-17T07:01:08.012Z,21.87
2022-08-17T07:03:44.476Z,21.94
2022-08-17T07:06:16.432Z,22.02
2022-08-17T07:08:56.308Z,22.14
2022-08-17T07:11:29.034Z,22.25
2022-08-17T07:14:05.644Z,22.30
2022-08-17T07:16:39.187Z,22.37
2022-08-17T07:19:08.136Z,22.50
2022-08-17T07:21:51.071Z,22.64
2022-08-17T07:24:37.261Z,22.73
2022-08-17T07:27:11.192Z,22.81
2022-08-17T07:29:47.672Z,22.91
2022-08-17T07:32:19.678Z,23.04
2022-08-17T07:35:05.029Z,23.15
2022-08-17T07:37:34.309Z,23.24
2022-08-17T07:40:18.047Z,23.34
2022-08-17T07:46:13.160Z,23.55
2022-08-17T07:48:44.364Z,23.66
2022-08-17T07:51:19.542Z,23.76
2022-08-17T07:53:48.102Z,23.89
2022-08-17T07:56:37.812Z,23.99
2022-08-17T07:59:13.331Z,24.10
2022-08-17T08:01:48.635Z,24.21
2022-08-17T08:07:27.503Z,24.55
2022-08-17T08:10:07.632Z,24.65
2022-08-17T08:12:40.084Z,24.81
2022-08-17T08:15:17.757Z,24.95
2022-08-17T08:17:54.148Z,25.10
2022-08-17T08:20:52.306Z,25.20
2022-08-17T08:23:34.680Z,25.29
2022-08-17T08:26:18.404Z,25.44
2022-08-17T08:29:01.421Z,25.63
2022-08-17T08:31:44.204Z,25.77
2022-08-17T08:34:44.424Z,25.91
2022-08-17T08:37:32.269Z,26.07
2022-08-17T08:40:12.049Z,26.22
2022-08-17T08:42:51.204Z,26.33
2022-08-17T08:45:26.527Z,26.46
2022-08-17T08:48:22.693Z,26.63
2022-08-17T08:51:05.243Z,26.79
2022-08-17T08:53:45.617Z,26.92
2022-08-17T08:56:26.279Z,27.11
2022-08-17T08:59:03.370Z,27.29
2022-08-17T09:01:38.088Z,27.45
2022-08-17T09:04:26.005Z,27.62
2022-08-17T09:07:11.353Z,27.76
2022-08-17T09:09:49.582Z,27.84
2022-08-17T09:12:26.809Z,27.96
2022-08-17T09:15:02.305Z,28.08
2022-08-17T09:17:40.044Z,28.22
2022-08-17T09:20:28.230Z,28.47
2022-08-17T09:23:03.632Z,28.79
2022-08-17T09:25:36.428Z,28.91
2022-08-17T09:28:07.974Z,29.01
2022-08-17T09:30:42.556Z,29.18
2022-08-17T09:33:13.871Z,29.35
2022-08-17T09:35:46.730Z,29.56
2022-08-17T09:38:23.946Z,29.92
2022-08-17T09:41:00.775Z,30.31
2022-08-17T09:43:37.698Z,30.51
2022-08-17T09:46:12.646Z,30.90
2022-08-17T09:48:46.226Z,31.01
2022-08-17T09:51:19.320Z,31.13
2022-08-17T09:53:50.002Z,31.23
2022-08-17T09:56:33.771Z,31.21
2022-08-17T09:59:23.045Z,31.32
2022-08-17T10:02:00.430Z,31.44
2022-08-17T10:04:45.289Z,31.60
2022-08-17T10:07:18.808Z,31.77
2022-08-17T10:10:02.108Z,31.98
2022-08-17T10:12:38.687Z,32.20
2022-08-17T10:15:38.312Z,32.25
2022-08-17T10:18:30.560Z,32.23
2022-08-17T10:21:30.367Z,32.34
2022-08-17T10:24:24.619Z,32.56
2022-08-17T10:26:58.359Z,32.98
2022-08-17T10:29:32.699Z,33.28
2022-08-17T10:32:23.794Z,33.50
2022-08-17T10:35:25.975Z,33.61
2022-08-17T10:38:36.469Z,33.54
2022-08-17T10:41:20.676Z,33.80
2022-08-17T10:44:38.758Z,34.25
2022-08-17T10:47:00.088Z,34.65
2022-08-17T10:49:33.117Z,34.46
2022-08-17T10:52:30.527Z,34.33
2022-08-17T10:55:12.667Z,34.21
2022-08-17T10:57:45.014Z,34.18
2022-08-17T11:00:31.803Z,34.47
2022-08-17T11:03:01.499Z,34.53
2022-08-17T11:05:54.150Z,34.86
2022-08-17T11:08:37.659Z,34.87
2022-08-17T11:11:23.216Z,35.25
2022-08-17T11:14:11.599Z,35.30
2022-08-17T11:16:53.602Z,35.53
2022-08-17T11:20:00.421Z,35.77
2022-08-17T11:22:49.727Z,35.82
2022-08-17T11:25:21.090Z,35.63
2022-08-17T11:27:53.583Z,35.45
2022-08-17T11:30:48.690Z,35.18
2022-08-17T11:33:55.055Z,34.86
2022-08-17T11:36:41.433Z,34.93
2022-08-17T11:39:27.462Z,34.95
2022-08-17T11:42:05.297Z,35.21
2022-08-17T11:44:43.403Z,35.53
2022-08-17T11:47:36.161Z,36.10
2022-08-17T11:50:49.069Z,36.63
2022-08-17T11:54:14.703Z,37.25
2022-08-17T11:56:48.664Z,37.62
2022-08-17T12:00:00.041Z,37.27
2022-08-17T12:02:47.552Z,37.24
2022-08-17T12:05:34.159Z,37.30
2022-08-17T12:08:12.196Z,37.19
2022-08-17T12:10:51.532Z,36.84
2022-08-17T12:13:23.652Z,36.93
2022-08-17T12:15:59.796Z,37.16
2022-08-17T12:18:31.725Z,37.29
2022-08-17T12:21:20.937Z,37.61
2022-08-17T12:23:57.012Z,37.73
2022-08-17T12:26:31.500Z,37.96
2022-08-17T12:29:03.526Z,38.04
2022-08-17T12:31:37.227Z,38.47
2022-08-17T12:34:06.103Z,38.29
2022-08-17T12:36:35.644Z,37.87
2022-08-17T12:39:13.706Z,37.65
2022-08-17T12:41:46.929Z,37.47
2022-08-17T12:44:19.498Z,37.73
2022-08-17T12:46:55.506Z,38.03
2022-08-17T12:49:32.091Z,38.60
2022-08-17T12:52:09.768Z,38.79
2022-08-17T12:54:57.074Z,38.69
2022-08-17T12:57:28.172Z,38.98
2022-08-17T13:00:01.840Z,39.42
2022-08-17T13:02:40.076Z,39.82
2022-08-17T13:05:19.328Z,39.64
2022-08-17T13:07:48.094Z,39.04
2022-08-17T13:10:26.340Z,38.60
2022-08-17T13:12:58.167Z,38.03
2022-08-17T13:15:36.322Z,37.91
2022-08-17T13:18:09.246Z,38.15
2022-08-17T13:20:38.194Z,38.44
2022-08-17T13:23:12.610Z,38.78
2022-08-17T13:25:41.400Z,38.45
2022-08-17T13:28:30.639Z,38.46
2022-08-17T13:31:51.795Z,38.66
2022-08-17T13:34:38.721Z,38.95
2022-08-17T13:37:30.119Z,39.10
2022-08-17T13:40:30.746Z,38.82
2022-08-17T13:42:59.827Z,39.16
2022-08-17T13:45:44.851Z,39.63
2022-08-17T13:48:22.302Z,40.05
2022-08-17T13:51:08.727Z,40.39
2022-08-17T13:53:53.197Z,40.67
2022-08-17T13:56:33.380Z,40.75
2022-08-17T13:59:12.300Z,40.68
2022-08-17T14:01:43.565Z,40.47
2022-08-17T14:04:15.248Z,40.03
2022-08-17T14:06:49.795Z,39.49
2022-08-17T14:09:24.803Z,39.10
2022-08-17T14:11:56.032Z,38.80
2022-08-17T14:14:24.936Z,38.50
2022-08-17T14:16:54.850Z,38.73
2022-08-17T14:19:23.462Z,38.63
2022-08-17T14:21:59.249Z,38.31
2022-08-17T14:24:31.871Z,38.02
2022-08-17T14:27:03.777Z,38.04
2022-08-17T14:29:34.311Z,38.17
2022-08-17T14:32:07.991Z,37.98
2022-08-17T14:34:36.581Z,37.66
2022-08-17T14:37:04.965Z,37.36
2022-08-17T14:39:34.233Z,37.24
2022-08-17T14:42:04.015Z,37.16
2022-08-17T14:44:32.548Z,37.47
2022-08-17T14:47:01.326Z,37.50
2022-08-17T14:49:30.260Z,37.54
2022-08-17T14:51:59.477Z,37.36
2022-08-17T14:54:34.232Z,37.45
2022-08-17T14:57:22.819Z,37.61
2022-08-17T14:59:54.753Z,37.99
2022-08-17T15:02:29.883Z,37.99
2022-08-17T15:05:04.547Z,38.05
2022-08-17T15:07:33.415Z,38.04
2022-08-17T15:10:02.332Z,38.39
2022-08-17T15:12:34.502Z,38.29
2022-08-17T15:15:04.746Z,38.19
2022-08-17T15:17:44.538Z,38.05
2022-08-17T15:20:18.263Z,38.09
2022-08-17T15:22:49.611Z,38.35
2022-08-17T15:25:22.129Z,38.26
2022-08-17T15:27:52.743Z,38.61
2022-08-17T15:30:22.028Z,38.91
2022-08-17T15:32:54.922Z,38.61
2022-08-17T15:35:28.274Z,38.29
2022-08-17T15:38:04.538Z,38.19
2022-08-17T15:40:36.681Z,38.22
2022-08-17T15:43:07.709Z,38.12
2022-08-17T15:45:36.056Z,38.13
2022-08-17T15:48:05.014Z,37.95
2022-08-17T15:50:33.859Z,37.60
2022-08-17T15:53:03.543Z,37.39
2022-08-17T15:55:33.093Z,37.23
2022-08-17T15:58:01.844Z,37.03
2022-08-17T16:00:39.779Z,36.86
2022-08-17T16:04:01.438Z,36.66
2022-08-17T16:06:11.045Z,36.66
2022-08-17T16:08:42.026Z,36.62
2022-08-17T16:11:11.324Z,36.49
2022-08-17T16:13:40.676Z,36.63
2022-08-17T16:16:11.840Z,36.84
2022-08-17T16:18:40.524Z,36.99
2022-08-17T16:21:29.522Z,37.10
2022-08-17T16:24:02.058Z,37.17
2022-08-17T16:26:33.383Z,37.10
2022-08-17T16:29:04.480Z,36.90
2022-08-17T16:31:36.316Z,36.70
2022-08-17T16:34:23.307Z,36.35
2022-08-17T16:36:56.077Z,36.17
2022-08-17T16:39:27.397Z,36.11
2022-08-17T16:41:56.500Z,36.03
2022-08-17T16:44:26.154Z,35.99
2022-08-17T16:46:57.363Z,35.73
2022-08-17T16:49:37.020Z,35.54
2022-08-17T16:52:09.753Z,35.51
2022-08-17T16:54:40.590Z,35.40
2022-08-17T16:57:09.167Z,35.30
2022-08-17T16:59:40.948Z,35.16
2022-08-17T17:02:15.388Z,35.08
2022-08-17T17:05:03.716Z,35.04
2022-08-17T17:08:00.749Z,35.00
2022-08-17T17:10:37.002Z,34.87
2022-08-17T17:13:08.996Z,34.79
2022-08-17T17:15:51.686Z,34.72
2022-08-17T17:18:27.512Z,34.67
2022-08-17T17:20:58.240Z,34.55
2022-08-17T17:23:38.823Z,34.48
2022-08-17T17:26:19.095Z,34.39
2022-08-17T17:29:01.936Z,34.24
2022-08-17T17:31:38.324Z,34.13
2022-08-17T17:34:14.146Z,33.99
2022-08-17T17:36:47.035Z,33.83
2022-08-17T17:39:19.753Z,33.73
2022-08-17T17:41:52.361Z,33.62
2022-08-17T17:44:25.836Z,33.55
2022-08-17T17:46:58.570Z,33.52
2022-08-17T17:49:31.199Z,33.48
2022-08-17T17:52:07.690Z,33.37
2022-08-17T17:54:52.249Z,33.22
2022-08-17T17:57:30.283Z,33.10
2022-08-17T18:00:06.985Z,32.96
2022-08-17T18:02:54.705Z,32.84
2022-08-17T18:05:49.169Z,32.84
2022-08-17T18:08:32.213Z,32.78
2022-08-17T18:11:14.117Z,32.72
2022-08-17T18:14:07.547Z,32.63
2022-08-17T18:16:36.008Z,32.53
2022-08-17T18:19:06.830Z,32.46
2022-08-17T18:21:44.365Z,32.36
2022-08-17T18:24:14.000Z,32.25
2022-08-17T18:26:51.085Z,32.09
2022-08-17T18:29:31.895Z,31.98
2022-08-17T18:32:27.004Z,31.86
2022-08-17T18:34:57.755Z,31.74
2022-08-17T18:37:42.559Z,31.72
2022-08-17T18:40:29.639Z,31.67
2022-08-17T18:43:03.205Z,31.57
2022-08-17T18:45:35.703Z,31.47
2022-08-17T18:48:05.068Z,31.44
2022-08-17T18:50:41.163Z,31.42
2022-08-17T18:53:30.384Z,31.24
2022-08-17T18:56:32.224Z,31.26
2022-08-17T18:59:10.910Z,31.15
2022-08-17T19:01:53.790Z,31.07
2022-08-17T19:04:33.975Z,30.98
2022-08-17T19:07:10.777Z,30.91
2022-08-17T19:09:45.137Z,30.89
2022-08-17T19:12:27.397Z,30.83
2022-08-17T19:14:59.860Z,30.72
2022-08-17T19:17:39.634Z,30.57
2022-08-17T19:20:16.066Z,30.43
2022-08-17T19:22:55.041Z,30.31
2022-08-17T19:25:28.764Z,30.19
2022-08-17T19:28:12.707Z,30.12
2022-08-17T19:30:51.806Z,30.04
2022-08-17T19:33:20.493Z,29.94
2022-08-17T19:35:57.673Z,29.86
2022-08-17T19:38:35.473Z,29.73
2022-08-17T19:41:13.735Z,29.64
2022-08-17T19:44:01.273Z,29.56
2022-08-17T19:46:36.679Z,29.50
2022-08-17T19:49:14.580Z,29.47
2022-08-17T19:51:50.641Z,29.43
2022-08-17T19:54:26.992Z,29.40
2022-08-17T19:57:03.549Z,29.38
2022-08-17T19:59:49.035Z,29.26
2022-08-17T20:02:32.748Z,29.12
2022-08-17T20:05:06.456Z,29.05
2022-08-17T20:07:43.495Z,29.01
2022-08-17T20:10:17.124Z,28.90
2022-08-17T20:12:50.909Z,28.83
2022-08-17T20:15:26.299Z,28.77
2022-08-17T20:17:58.866Z,28.71
2022-08-17T20:20:36.415Z,28.62
2022-08-17T20:23:13.191Z,28.54
2022-08-17T20:25:49.912Z,28.47
2022-08-17T20:28:25.372Z,28.39
2022-08-17T20:30:53.770Z,28.33
2022-08-17T20:33:29.651Z,28.26
2022-08-17T20:36:18.632Z,28.30
2022-08-17T20:38:50.500Z,28.28
2022-08-17T20:41:22.421Z,28.27
2022-08-17T20:44:04.211Z,28.23
2022-08-17T20:47:02.187Z,28.18
2022-08-17T20:49:47.575Z,28.02
2022-08-17T20:52:38.405Z,27.92
2022-08-17T20:55:07.720Z,27.84
2022-08-17T20:57:54.013Z,27.79
2022-08-17T21:00:45.128Z,27.75
2022-08-17T21:03:51.085Z,27.74
2022-08-17T21:06:23.619Z,27.74
2022-08-17T21:08:57.672Z,27.75
2022-08-17T21:12:03.481Z,27.75
2022-08-17T21:14:57.387Z,27.70
2022-08-17T21:17:42.089Z,27.66
2022-08-17T21:20:24.513Z,27.59
2022-08-17T21:23:16.273Z,27.58
2022-08-17T21:26:02.790Z,27.59
2022-08-17T21:29:00.407Z,27.60
2022-08-17T21:31:34.770Z,27.51
2022-08-17T21:34:35.267Z,27.46
2022-08-17T21:37:30.483Z,27.35
2022-08-17T21:40:02.328Z,27.29
2022-08-17T21:42:35.170Z,27.28
2022-08-17T21:45:11.711Z,27.25
2022-08-17T21:47:45.516Z,27.20
2022-08-17T21:50:21.915Z,27.19
2022-08-17T21:52:54.097Z,27.16
2022-08-17T21:55:29.467Z,27.09
2022-08-17T21:58:13.973Z,27.09
2022-08-17T22:00:45.043Z,27.09
2022-08-17T22:03:27.764Z,27.11
2022-08-17T22:05:58.217Z,27.11
2022-08-17T22:08:26.802Z,27.11
2022-08-17T22:11:02.759Z,27.10
2022-08-17T22:13:31.743Z,27.10
2022-08-17T22:16:28.440Z,27.12
2022-08-17T22:18:59.948Z,27.05
2022-08-17T22:21:29.675Z,27.05
2022-08-17T22:24:05.835Z,27.01
2022-08-17T22:27:01.637Z,26.96
2022-08-17T22:29:57.653Z,26.87
2022-08-17T22:32:36.303Z,26.81
2022-08-17T22:35:37.221Z,26.79
2022-08-17T22:38:32.648Z,26.71
2022-08-17T22:41:25.962Z,26.23
2022-08-17T22:43:57.731Z,26.16
2022-08-17T22:46:26.637Z,26.14
2022-08-17T22:48:59.664Z,26.17
2022-08-17T22:51:30.805Z,26.24
2022-08-17T22:54:22.334Z,26.30
2022-08-17T22:57:14.926Z,26.32
2022-08-17T22:59:50.971Z,26.29
2022-08-17T23:02:26.709Z,26.38
2022-08-17T23:04:59.099Z,26.42
2022-08-17T23:07:27.936Z,26.34
2022-08-17T23:09:57.643Z,26.08
2022-08-17T23:12:27.910Z,25.60
2022-08-17T23:15:01.591Z,25.49
2022-08-17T23:17:37.103Z,25.46
2022-08-17T23:20:08.287Z,25.56
2022-08-17T23:22:51.203Z,25.73
2022-08-17T23:25:28.476Z,25.85
2022-08-17T23:28:01.455Z,25.85
2022-08-17T23:30:31.539Z,25.88
2022-08-17T23:33:02.339Z,25.65
2022-08-17T23:35:40.114Z,25.53
2022-08-17T23:38:10.609Z,25.32
2022-08-17T23:40:41.284Z,25.22
2022-08-17T23:43:24.084Z,25.10
2022-08-17T23:45:55.054Z,24.87
2022-08-17T23:48:35.325Z,24.69
2022-08-17T23:51:10.395Z,24.54
2022-08-17T23:53:45.110Z,24.39
2022-08-17T23:56:15.362Z,24.26
2022-08-17T23:58:44.762Z,24.11
